createdAt,value
2023-04-15T00:01:21.617Z,65.68
2023-04-15T00:03:52.738Z,65.85
2023-04-15T00:06:21.870Z,65.92
2023-04-15T00:08:50.876Z,65.97
2023-04-15T00:11:20.271Z,65.96
2023-04-15T00:13:51.622Z,65.99
2023-04-15T00:16:19.699Z,66.06
2023-04-15T00:18:48.092Z,66.09
2023-04-15T00:21:21.202Z,66.20
2023-04-15T00:23:52.941Z,66.18
2023-04-15T00:26:21.146Z,66.34
2023-04-15T00:28:54.254Z,66.54
2023-04-15T00:31:23.570Z,66.61
2023-04-15T00:33:52.531Z,66.64
2023-04-15T00:36:24.761Z,66.78
2023-04-15T00:38:54.211Z,66.73
2023-04-15T00:41:23.231Z,66.87
2023-04-15T00:43:52.908Z,66.94
2023-04-15T00:46:21.779Z,66.96
2023-04-15T00:48:52.541Z,67.01
2023-04-15T00:51:20.988Z,67.16
2023-04-15T00:53:49.076Z,67.45
2023-04-15T00:56:17.341Z,67.66
2023-04-15T00:58:45.659Z,67.82
2023-04-15T01:01:14.126Z,67.98
2023-04-15T01:03:45.283Z,68.12
2023-04-15T01:06:14.213Z,68.22
2023-04-15T01:08:42.389Z,68.30
2023-04-15T01:11:12.591Z,68.44
2023-04-15T01:13:42.826Z,68.54
2023-04-15T01:16:11.020Z,68.63
2023-04-15T01:18:39.592Z,68.74
2023-04-15T01:21:08.801Z,68.71
2023-04-15T01:23:38.730Z,68.69
2023-04-15T01:26:09.313Z,68.69
2023-04-15T01:28:38.455Z,68.63
2023-04-15T01:31:11.904Z,68.51
2023-04-15T01:33:42.518Z,68.45
2023-04-15T01:36:11.087Z,68.20
2023-04-15T01:38:40.369Z,67.93
2023-04-15T01:41:08.766Z,67.87
2023-04-15T01:43:39.722Z,67.93
2023-04-15T01:46:10.610Z,67.93
2023-04-15T01:48:38.891Z,67.84
2023-04-15T01:51:08.291Z,67.83
2023-04-15T01:53:38.155Z,67.70
2023-04-15T01:56:07.463Z,67.35
2023-04-15T01:58:36.154Z,67.32
2023-04-15T02:01:04.880Z,67.32
2023-04-15T02:03:34.363Z,67.28
2023-04-15T02:06:02.730Z,67.11
2023-04-15T02:08:36.119Z,67.08
2023-04-15T02:11:06.166Z,67.03
2023-04-15T02:13:34.536Z,67.03
2023-04-15T02:16:03.649Z,66.82
2023-04-15T02:18:35.765Z,66.89
2023-04-15T02:21:07.302Z,66.91
2023-04-15T02:23:35.401Z,66.67
2023-04-15T02:26:05.155Z,66.77
2023-04-15T02:28:33.546Z,66.74
2023-04-15T02:31:06.668Z,66.69
2023-04-15T02:33:35.016Z,66.68
2023-04-15T02:36:05.752Z,66.70
2023-04-15T02:38:34.753Z,66.66
2023-04-15T02:41:11.728Z,66.59
2023-04-15T02:43:41.443Z,66.48
2023-04-15T02:46:12.998Z,66.33
2023-04-15T02:48:46.521Z,66.23
2023-04-15T02:51:20.198Z,66.14
2023-04-15T02:53:49.214Z,66.20
2023-04-15T02:56:20.458Z,66.05
2023-04-15T02:58:50.724Z,66.15
2023-04-15T03:01:20.755Z,66.28
2023-04-15T03:03:49.214Z,66.35
2023-04-15T03:06:17.464Z,66.37
2023-04-15T03:08:45.941Z,66.40
2023-04-15T03:11:15.538Z,66.39
2023-04-15T03:13:44.151Z,66.29
2023-04-15T03:16:22.872Z,66.26
2023-04-15T03:18:51.248Z,66.32
2023-04-15T03:21:21.371Z,66.44
2023-04-15T03:23:49.954Z,66.48
2023-04-15T03:26:29.910Z,66.62
2023-04-15T03:29:01.765Z,66.63
2023-04-15T03:31:31.251Z,66.76
2023-04-15T03:33:59.668Z,66.90
2023-04-15T03:36:29.790Z,66.93
2023-04-15T03:38:59.981Z,66.94
2023-04-15T03:41:28.972Z,67.15
2023-04-15T03:43:59.446Z,67.23
2023-04-15T03:46:28.063Z,67.33
2023-04-15T03:48:56.435Z,67.31
2023-04-15T03:51:25.024Z,67.41
2023-04-15T03:53:54.720Z,67.58
2023-04-15T03:56:22.946Z,67.72
2023-04-15T03:58:51.895Z,67.86
2023-04-15T04:01:20.178Z,67.90
2023-04-15T04:03:48.813Z,68.09
2023-04-15T04:06:20.841Z,68.04
2023-04-15T04:08:49.698Z,68.17
2023-04-15T04:11:17.807Z,68.18
2023-04-15T04:13:48.340Z,68.21
2023-04-15T04:16:17.765Z,68.13
2023-04-15T04:18:46.331Z,68.09
2023-04-15T04:21:14.517Z,68.05
2023-04-15T04:23:43.626Z,68.01
2023-04-15T04:26:12.101Z,67.93
2023-04-15T04:28:40.739Z,67.86
2023-04-15T04:31:09.930Z,67.94
2023-04-15T04:33:40.003Z,68.11
2023-04-15T04:36:08.497Z,68.26
2023-04-15T04:38:41.590Z,68.28
2023-04-15T04:41:09.769Z,68.38
2023-04-15T04:43:37.954Z,68.20
2023-04-15T04:46:06.670Z,68.26
2023-04-15T04:48:35.429Z,68.25
2023-04-15T04:51:04.130Z,68.25
2023-04-15T04:53:33.940Z,68.27
2023-04-15T04:56:02.509Z,68.50
2023-04-15T04:58:30.911Z,68.69
2023-04-15T05:01:00.365Z,68.93
2023-04-15T05:03:28.939Z,69.06
2023-04-15T05:05:57.310Z,69.01
2023-04-15T05:08:30.502Z,68.96
2023-04-15T05:10:58.672Z,68.84
2023-04-15T05:13:27.363Z,68.78
2023-04-15T05:15:57.170Z,68.65
2023-04-15T05:18:30.264Z,68.61
2023-04-15T05:20:59.470Z,68.57
2023-04-15T05:23:27.751Z,68.63
2023-04-15T05:25:56.131Z,68.72
2023-04-15T05:28:25.847Z,68.85
2023-04-15T05:30:53.961Z,68.75
2023-04-15T05:33:23.285Z,68.56
2023-04-15T05:35:56.028Z,68.40
2023-04-15T05:38:36.347Z,68.56
2023-04-15T05:41:08.969Z,68.48
2023-04-15T05:43:44.458Z,68.21
2023-04-15T05:46:13.713Z,68.26
2023-04-15T05:48:43.137Z,68.27
2023-04-15T05:51:14.665Z,68.31
2023-04-15T05:53:46.705Z,68.15
2023-04-15T05:58:57.069Z,68.18
2023-04-15T06:01:31.421Z,68.27
2023-04-15T06:04:00.589Z,68.44
2023-04-15T06:06:29.116Z,68.39
2023-04-15T06:08:57.808Z,68.30
2023-04-15T06:11:32.244Z,68.17
2023-04-15T06:14:02.175Z,67.99
2023-04-15T06:16:32.957Z,67.83
2023-04-15T06:19:05.408Z,67.64
2023-04-15T06:21:42.015Z,67.53
2023-04-15T06:24:12.261Z,67.62
2023-04-15T06:26:51.197Z,67.38
2023-04-15T06:29:29.879Z,67.40
2023-04-15T06:32:08.104Z,67.29
2023-04-15T06:34:37.471Z,67.26
2023-04-15T06:37:09.669Z,67.25
2023-04-15T06:42:39.841Z,67.47
2023-04-15T06:45:15.210Z,67.13
2023-04-15T06:47:45.808Z,67.11
2023-04-15T06:50:18.672Z,66.95
2023-04-15T06:52:58.551Z,66.52
2023-04-15T06:55:32.491Z,66.27
2023-04-15T06:58:05.901Z,65.80
2023-04-15T07:00:40.006Z,65.08
2023-04-15T07:05:55.734Z,64.47
2023-04-15T07:11:14.588Z,64.72
2023-04-15T07:13:49.975Z,64.80
2023-04-15T07:16:29.408Z,65.05
2023-04-15T07:19:05.074Z,65.04
2023-04-15T07:21:40.061Z,65.01
2023-04-15T07:24:28.680Z,65.09
2023-04-15T07:27:05.088Z,65.17
2023-04-15T07:29:37.385Z,65.29
2023-04-15T07:34:57.959Z,64.69
2023-04-15T07:37:30.732Z,64.66
2023-04-15T07:40:06.334Z,64.68
2023-04-15T07:42:44.125Z,64.66
2023-04-15T07:45:13.090Z,64.54
2023-04-15T07:47:47.215Z,64.31
2023-04-15T07:50:23.413Z,64.16
2023-04-15T07:52:56.021Z,64.41
2023-04-15T07:55:28.246Z,64.41
2023-04-15T07:58:00.051Z,64.29
2023-04-15T08:00:28.969Z,64.35
2023-04-15T08:03:00.106Z,64.21
2023-04-15T08:05:34.412Z,64.14
2023-04-15T08:08:05.260Z,64.16
2023-04-15T08:10:41.923Z,64.12
2023-04-15T08:13:11.411Z,63.90
2023-04-15T08:15:46.571Z,63.48
2023-04-15T08:18:17.006Z,63.61
2023-04-15T08:20:48.560Z,63.80
2023-04-15T08:23:18.680Z,63.92
2023-04-15T08:25:57.382Z,64.08
2023-04-15T08:28:29.054Z,64.22
2023-04-15T08:31:02.746Z,64.20
2023-04-15T08:33:37.219Z,64.21
2023-04-15T08:36:15.090Z,64.30
2023-04-15T08:38:47.031Z,64.19
2023-04-15T08:41:26.454Z,64.02
2023-04-15T08:44:09.394Z,64.03
2023-04-15T08:46:42.696Z,64.08
2023-04-15T08:49:18.396Z,64.24
2023-04-15T08:51:51.134Z,64.51
2023-04-15T08:54:23.557Z,64.59
2023-04-15T08:56:54.026Z,64.62
2023-04-15T08:59:27.238Z,64.71
2023-04-15T09:02:01.908Z,64.51
2023-04-15T09:04:31.679Z,64.57
2023-04-15T09:06:59.825Z,64.64
2023-04-15T09:09:30.540Z,64.65
2023-04-15T09:11:58.704Z,64.69
2023-04-15T09:14:27.120Z,64.58
2023-04-15T09:17:04.587Z,64.35
2023-04-15T09:19:40.579Z,64.24
2023-04-15T09:22:16.418Z,64.24
2023-04-15T09:27:37.976Z,63.89
2023-04-15T09:30:15.316Z,63.69
2023-04-15T09:33:02.581Z,63.64
2023-04-15T09:35:31.843Z,63.65
2023-04-15T09:38:04.191Z,63.39
2023-04-15T09:40:38.818Z,63.35
2023-04-15T09:43:08.180Z,63.30
2023-04-15T09:45:36.615Z,63.10
2023-04-15T09:48:23.581Z,62.97
2023-04-15T09:50:54.939Z,62.98
2023-04-15T09:53:24.569Z,62.70
2023-04-15T09:56:00.722Z,62.78
2023-04-15T09:58:31.522Z,62.89
2023-04-15T10:01:01.981Z,62.86
2023-04-15T10:03:37.112Z,62.80
2023-04-15T10:06:09.202Z,62.73
2023-04-15T10:08:39.595Z,62.77
2023-04-15T10:11:12.882Z,62.87
2023-04-15T10:13:41.471Z,62.78
2023-04-15T10:16:17.165Z,62.62
2023-04-15T10:18:58.532Z,62.53
2023-04-15T10:21:32.100Z,62.42
2023-04-15T10:24:01.969Z,62.39
2023-04-15T10:26:35.761Z,62.38
2023-04-15T10:29:04.754Z,62.35
2023-04-15T10:31:33.015Z,62.11
2023-04-15T10:34:10.864Z,61.92
2023-04-15T10:36:39.652Z,61.84
2023-04-15T10:39:40.259Z,61.60
2023-04-15T10:42:10.302Z,61.35
2023-04-15T10:44:41.997Z,61.34
2023-04-15T10:47:13.269Z,61.37
2023-04-15T10:50:02.583Z,61.25
2023-04-15T10:52:40.805Z,61.25
2023-04-15T10:55:18.006Z,61.27
2023-04-15T10:57:46.995Z,61.10
2023-04-15T11:00:16.786Z,61.43
2023-04-15T11:03:15.207Z,61.57
2023-04-15T11:05:50.633Z,61.71
2023-04-15T11:08:19.618Z,62.04
2023-04-15T11:10:54.172Z,61.94
2023-04-15T11:13:23.847Z,61.92
2023-04-15T11:15:56.872Z,61.90
2023-04-15T11:18:30.253Z,61.80
2023-04-15T11:21:12.001Z,61.61
2023-04-15T11:23:44.421Z,61.46
2023-04-15T11:26:13.654Z,61.41
2023-04-15T11:28:43.503Z,61.47
2023-04-15T11:31:18.772Z,61.21
2023-04-15T11:33:59.564Z,61.38
2023-04-15T11:36:35.535Z,61.57
2023-04-15T11:41:53.358Z,62.02
2023-04-15T11:44:23.483Z,62.03
2023-04-15T11:46:55.554Z,61.70
2023-04-15T11:49:30.818Z,61.58
2023-04-15T11:52:02.924Z,61.45
2023-04-15T11:54:34.069Z,61.43
2023-04-15T11:57:03.353Z,61.58
2023-04-15T11:59:46.463Z,61.75
2023-04-15T12:02:21.970Z,61.85
2023-04-15T12:04:53.021Z,62.08
2023-04-15T12:07:21.318Z,62.20
2023-04-15T12:09:59.578Z,62.05
2023-04-15T12:12:31.653Z,62.00
2023-04-15T12:15:00.246Z,62.21
2023-04-15T12:17:28.485Z,62.39
2023-04-15T12:20:02.408Z,62.60
2023-04-15T12:22:40.334Z,62.54
2023-04-15T12:25:13.810Z,62.59
2023-04-15T12:27:52.134Z,62.64
2023-04-15T12:30:22.429Z,62.64
2023-04-15T12:32:52.024Z,62.58
2023-04-15T12:35:22.112Z,62.63
2023-04-15T12:37:55.819Z,62.66
2023-04-15T12:40:29.756Z,62.72
2023-04-15T12:42:58.416Z,62.94
2023-04-15T12:45:32.775Z,63.08
2023-04-15T12:48:05.970Z,63.27
2023-04-15T12:50:35.405Z,63.24
2023-04-15T12:53:10.005Z,63.43
2023-04-15T12:55:40.454Z,63.68
2023-04-15T12:58:12.110Z,63.81
2023-04-15T13:00:43.000Z,63.71
2023-04-15T13:03:13.393Z,63.74
2023-04-15T13:05:46.609Z,63.69
2023-04-15T13:08:20.077Z,63.58
2023-04-15T13:10:50.484Z,63.64
2023-04-15T13:13:19.055Z,63.73
2023-04-15T13:15:55.517Z,63.87
2023-04-15T13:18:26.658Z,63.58
2023-04-15T13:20:55.784Z,63.50
2023-04-15T13:23:25.139Z,63.46
2023-04-15T13:25:55.409Z,63.43
2023-04-15T13:28:25.258Z,63.42
2023-04-15T13:30:54.719Z,63.55
2023-04-15T13:33:31.229Z,63.25
2023-04-15T13:35:59.444Z,63.12
2023-04-15T13:38:27.799Z,63.04
2023-04-15T13:40:56.296Z,62.89
2023-04-15T13:43:27.228Z,63.15
2023-04-15T13:45:57.399Z,63.25
2023-04-15T13:48:31.611Z,63.37
2023-04-15T13:51:02.658Z,63.64
2023-04-15T13:53:38.306Z,63.71
2023-04-15T13:56:10.893Z,63.86
2023-04-15T13:58:43.252Z,63.93
2023-04-15T14:01:13.656Z,63.96
2023-04-15T14:03:45.506Z,64.02
2023-04-15T14:06:13.882Z,64.08
2023-04-15T14:08:42.319Z,64.12
2023-04-15T14:11:14.989Z,64.13
2023-04-15T14:13:45.998Z,64.14
2023-04-15T14:16:14.070Z,64.33
2023-04-15T14:18:43.399Z,64.32
2023-04-15T14:21:14.107Z,64.23
2023-04-15T14:23:42.773Z,64.17
2023-04-15T14:26:14.717Z,64.16
2023-04-15T14:28:45.270Z,64.19
2023-04-15T14:31:21.587Z,64.42
2023-04-15T14:33:52.021Z,64.42
2023-04-15T14:36:20.102Z,64.27
2023-04-15T14:38:50.772Z,64.28
2023-04-15T14:41:23.691Z,64.41
2023-04-15T14:46:39.073Z,64.63
2023-04-15T14:49:10.504Z,64.82
2023-04-15T14:51:41.855Z,65.03
2023-04-15T14:54:14.949Z,65.28
2023-04-15T14:56:44.460Z,65.28
2023-04-15T14:59:13.030Z,65.41
2023-04-15T15:01:41.759Z,65.73
2023-04-15T15:04:13.198Z,65.91
2023-04-15T15:06:43.832Z,66.02
2023-04-15T15:09:12.957Z,66.13
2023-04-15T15:14:30.940Z,66.20
2023-04-15T15:17:01.393Z,66.10
2023-04-15T15:19:35.576Z,66.17
2023-04-15T15:22:06.040Z,66.13
2023-04-15T15:24:40.513Z,66.09
2023-04-15T15:27:14.277Z,66.25
2023-04-15T15:29:44.966Z,66.60
2023-04-15T15:32:15.050Z,66.89
2023-04-15T15:34:43.124Z,67.16
2023-04-15T15:37:13.701Z,67.45
2023-04-15T15:39:47.773Z,67.79
2023-04-15T15:42:18.257Z,67.93
2023-04-15T15:44:49.465Z,67.98
2023-04-15T15:47:23.066Z,68.05
2023-04-15T15:49:53.716Z,68.11
2023-04-15T15:52:22.361Z,68.38
2023-04-15T15:54:51.654Z,68.48
2023-04-15T15:57:30.520Z,68.69
2023-04-15T16:05:08.573Z,69.38
2023-04-15T16:10:20.120Z,69.58
2023-04-15T16:12:49.889Z,69.75
2023-04-15T16:15:19.919Z,69.84
2023-04-15T16:17:52.081Z,69.86
2023-04-15T16:20:27.453Z,69.94
2023-04-15T16:22:58.920Z,70.12
2023-04-15T16:25:27.361Z,70.22
2023-04-15T16:28:05.520Z,70.03
2023-04-15T16:30:40.540Z,70.19
2023-04-15T16:33:08.665Z,70.38
2023-04-15T16:35:47.811Z,70.39
2023-04-15T16:38:16.548Z,70.52
2023-04-15T16:40:45.454Z,70.78
2023-04-15T16:43:14.013Z,70.83
2023-04-15T16:45:47.561Z,71.01
2023-04-15T16:48:19.762Z,71.20
2023-04-15T16:50:51.181Z,71.43
2023-04-15T16:53:27.878Z,71.64
2023-04-15T16:55:56.274Z,72.11
2023-04-15T16:58:26.595Z,72.40
2023-04-15T17:00:57.582Z,72.64
2023-04-15T17:03:31.162Z,72.83
2023-04-15T17:06:02.810Z,73.03
2023-04-15T17:08:32.612Z,73.04
2023-04-15T17:11:06.677Z,73.19
2023-04-15T17:13:37.166Z,73.35
2023-04-15T17:16:05.583Z,73.56
2023-04-15T17:18:41.978Z,73.49
2023-04-15T17:21:14.041Z,73.36
2023-04-15T17:23:42.360Z,73.50
2023-04-15T17:26:10.812Z,73.68
2023-04-15T17:28:41.903Z,73.75
2023-04-15T17:31:17.244Z,73.84
2023-04-15T17:34:07.651Z,74.11
2023-04-15T17:36:44.186Z,74.31
2023-04-15T17:39:18.266Z,74.64
2023-04-15T17:41:55.345Z,74.92
2023-04-15T17:44:25.273Z,74.99
2023-04-15T17:47:03.853Z,75.12
2023-04-15T17:49:37.853Z,75.28
2023-04-15T17:52:15.705Z,75.35
2023-04-15T17:54:57.327Z,75.50
2023-04-15T17:57:29.233Z,75.74
2023-04-15T18:00:00.047Z,75.90
2023-04-15T18:02:37.366Z,76.02
2023-04-15T18:05:11.085Z,76.20
2023-04-15T18:07:39.806Z,76.31
2023-04-15T18:10:16.402Z,76.37
2023-04-15T18:12:48.428Z,76.36
2023-04-15T18:15:23.953Z,76.53
2023-04-15T18:18:00.349Z,76.77
2023-04-15T18:20:30.445Z,76.81
2023-04-15T18:23:03.728Z,77.08
2023-04-15T18:25:34.342Z,77.32
2023-04-15T18:28:06.184Z,77.56
2023-04-15T18:30:37.324Z,77.81
2023-04-15T18:33:19.263Z,77.99
2023-04-15T18:35:49.786Z,78.18
2023-04-15T18:38:21.268Z,78.47
2023-04-15T18:40:58.309Z,78.71
2023-04-15T18:43:29.026Z,78.87
2023-04-15T18:45:57.574Z,78.94
2023-04-15T18:48:30.905Z,79.27
2023-04-15T18:51:00.726Z,79.51
2023-04-15T18:53:32.779Z,79.66
2023-04-15T18:56:12.595Z,79.77
2023-04-15T18:59:18.220Z,80.05
2023-04-15T19:01:42.172Z,80.02
2023-04-15T19:04:18.145Z,80.22
2023-04-15T19:06:52.238Z,80.23
2023-04-15T19:09:23.542Z,80.32
2023-04-15T19:11:52.228Z,80.40
2023-04-15T19:14:53.954Z,80.48
2023-04-15T19:17:48.701Z,80.48
2023-04-15T19:20:17.273Z,80.54
2023-04-15T19:22:45.504Z,80.64
2023-04-15T19:25:14.012Z,80.68
2023-04-15T19:27:42.797Z,80.74
2023-04-15T19:30:11.503Z,80.72
2023-04-15T19:32:40.025Z,80.81
2023-04-15T19:35:11.424Z,80.72
2023-04-15T19:37:40.320Z,80.84
2023-04-15T19:40:09.645Z,80.56
2023-04-15T19:42:38.319Z,80.64
2023-04-15T19:45:07.041Z,80.56
2023-04-15T19:47:36.375Z,80.60
2023-04-15T19:50:07.411Z,80.45
2023-04-15T19:52:35.518Z,80.32
2023-04-15T19:55:04.364Z,80.38
2023-04-15T19:57:34.181Z,80.32
2023-04-15T20:00:02.174Z,80.28
2023-04-15T20:02:34.549Z,80.17
2023-04-15T20:05:03.166Z,80.17
2023-04-15T20:07:31.770Z,80.14
2023-04-15T20:10:00.246Z,80.12
2023-04-15T20:12:49.547Z,80.05
2023-04-15T20:15:17.903Z,80.19
2023-04-15T20:17:47.840Z,80.25
2023-04-15T20:20:16.628Z,80.18
2023-04-15T20:22:44.761Z,80.24
2023-04-15T20:25:13.199Z,80.18
2023-04-15T20:27:42.043Z,80.18
2023-04-15T20:30:11.164Z,80.24
2023-04-15T20:32:39.373Z,80.34
2023-04-15T20:35:08.077Z,80.38
2023-04-15T20:37:37.461Z,80.38
2023-04-15T20:40:06.651Z,80.44
2023-04-15T20:42:35.129Z,80.53
2023-04-15T20:45:04.053Z,80.49
2023-04-15T20:47:32.250Z,80.57
2023-04-15T20:50:00.698Z,80.62
2023-04-15T20:52:28.874Z,80.68
2023-04-15T20:54:57.052Z,80.77
2023-04-15T20:57:26.068Z,80.85
2023-04-15T20:59:54.152Z,80.91
2023-04-15T21:02:23.766Z,81.01
2023-04-15T21:04:53.065Z,80.87
2023-04-15T21:07:21.895Z,81.00
2023-04-15T21:09:50.429Z,80.97
2023-04-15T21:12:19.220Z,81.03
2023-04-15T21:14:47.302Z,80.85
2023-04-15T21:17:15.482Z,80.98
2023-04-15T21:19:43.923Z,80.88
2023-04-15T21:22:11.959Z,80.92
2023-04-15T21:24:40.296Z,80.89
2023-04-15T21:27:09.628Z,80.82
2023-04-15T21:29:40.394Z,80.81
2023-04-15T21:32:08.730Z,80.80
2023-04-15T21:34:37.149Z,80.59
2023-04-15T21:37:05.825Z,80.61
2023-04-15T21:39:34.103Z,80.58
2023-04-15T21:42:02.986Z,80.37
2023-04-15T21:44:31.295Z,80.40
2023-04-15T21:46:59.594Z,80.29
2023-04-15T21:49:28.162Z,80.30
2023-04-15T21:52:01.373Z,80.21
2023-04-15T21:54:31.259Z,80.33
2023-04-15T21:56:59.550Z,80.23
2023-04-15T21:59:27.821Z,80.23
2023-04-15T22:01:55.978Z,80.22
2023-04-15T22:04:24.498Z,80.13
2023-04-15T22:06:55.841Z,80.08
2023-04-15T22:09:24.016Z,80.13
2023-04-15T22:11:52.302Z,80.11
2023-04-15T22:14:20.394Z,80.09
2023-04-15T22:16:48.719Z,79.94
2023-04-15T22:19:16.837Z,79.88
2023-04-15T22:21:45.024Z,79.90
2023-04-15T22:24:37.208Z,79.79
2023-04-15T22:27:03.484Z,79.73
2023-04-15T22:29:32.270Z,79.60
2023-04-15T22:32:00.505Z,79.57
2023-04-15T22:34:28.627Z,79.63
2023-04-15T22:36:56.825Z,79.68
2023-04-15T22:39:24.855Z,79.65
2023-04-15T22:41:52.953Z,79.70
2023-04-15T22:44:21.038Z,79.56
2023-04-15T22:46:51.876Z,79.67
2023-04-15T22:49:19.953Z,79.70
2023-04-15T22:51:48.030Z,79.62
2023-04-15T22:54:16.517Z,79.57
2023-04-15T22:56:44.692Z,79.62
2023-04-15T22:59:12.994Z,79.67
2023-04-15T23:01:41.195Z,79.63
2023-04-15T23:04:10.331Z,79.59
2023-04-15T23:06:52.487Z,79.57
2023-04-15T23:09:22.692Z,79.57
2023-04-15T23:11:51.518Z,79.57
2023-04-15T23:14:19.927Z,79.66
2023-04-15T23:16:48.350Z,79.62
2023-04-15T23:19:16.726Z,79.56
2023-04-15T23:21:45.732Z,79.58
2023-04-15T23:24:13.914Z,79.61
2023-04-15T23:26:43.149Z,79.61
2023-04-15T23:29:11.399Z,79.52
2023-04-15T23:31:41.756Z,79.49
2023-04-15T23:34:10.118Z,79.43
2023-04-15T23:36:38.693Z,79.37
2023-04-15T23:41:36.692Z,79.44
2023-04-15T23:44:05.681Z,79.51
2023-04-15T23:46:34.108Z,79.48
2023-04-15T23:49:02.352Z,79.39
2023-04-15T23:51:31.221Z,79.48
2023-04-15T23:53:59.538Z,79.53
2023-04-15T23:56:27.709Z,79.41
2023-04-15T23:58:55.995Z,79.39
